createdAt,value
2019-02-24T00:08:27.835Z,101234.72
2019-02-24T00:18:28.696Z,101232.86
2019-02-24T00:28:29.424Z,101228.36
2019-02-24T00:38:30.100Z,101234.62
2019-02-24T00:48:30.764Z,101233.66
2019-02-24T00:58:34.593Z,101244.30
2019-02-24T01:08:35.215Z,101240.53
2019-02-24T01:18:35.900Z,101224.48
2019-02-24T01:28:37.599Z,101231.01
2019-02-24T01:38:39.312Z,101229.00
2019-02-24T01:48:40.250Z,101227.17
2019-02-24T01:58:40.912Z,101220.49
2019-02-24T02:08:41.567Z,101218.48
2019-02-24T02:18:42.223Z,101219.02
2019-02-24T02:28:44.204Z,101225.86
2019-02-24T02:38:45.184Z,101226.44
2019-02-24T02:59:30.851Z,101211.59
2019-02-24T03:09:31.466Z,101203.72
2019-02-24T03:19:32.123Z,101197.84
2019-02-24T03:29:32.739Z,101185.73
2019-02-24T03:39:34.413Z,101194.17
2019-02-24T03:49:35.089Z,101195.63
2019-02-24T03:59:41.605Z,101200.44
2019-02-24T04:09:42.283Z,101207.88
2019-02-24T04:19:43.897Z,101214.64
2019-02-24T04:29:44.581Z,101218.30
2019-02-24T04:39:45.194Z,101225.61
2019-02-24T04:49:46.880Z,101216.30
2019-02-24T04:59:53.730Z,101217.05
2019-02-24T05:09:55.412Z,101203.38
2019-02-24T05:19:56.108Z,101208.36
2019-02-24T05:29:56.786Z,101192.55
2019-02-24T05:39:57.711Z,101187.75
2019-02-24T05:49:58.596Z,101188.55
2019-02-24T05:59:59.248Z,101192.97
2019-02-24T06:10:00.956Z,101188.44
2019-02-24T06:20:01.892Z,101180.31
2019-02-24T06:30:05.258Z,101180.70
2019-02-24T06:40:06.374Z,101186.09
2019-02-24T06:50:08.294Z,101198.92
2019-02-24T07:00:14.079Z,101206.63
2019-02-24T07:10:13.269Z,101208.46
2019-02-24T07:20:18.950Z,101207.63
2019-02-24T07:30:23.577Z,101210.02
2019-02-24T07:40:23.319Z,101211.95
2019-02-24T07:50:23.966Z,101214.34
2019-02-24T08:00:33.465Z,101222.23
2019-02-24T08:10:34.079Z,101233.36
2019-02-24T08:20:34.970Z,101235.19
2019-02-24T08:30:41.550Z,101251.23
2019-02-24T08:40:39.121Z,101251.09
2019-02-24T08:50:40.762Z,101251.89
2019-02-24T09:00:50.495Z,101257.18
2019-02-24T09:10:46.980Z,101266.00
2019-02-24T09:20:47.864Z,101242.08
2019-02-24T09:30:48.518Z,101247.59
2019-02-24T09:40:49.432Z,101247.17
2019-02-24T09:51:18.150Z,101260.73
2019-02-24T10:21:58.036Z,101258.57
2019-02-24T10:32:10.298Z,101243.72
2019-02-24T10:42:22.425Z,101186.70
2019-02-24T10:52:34.477Z,101104.69
2019-02-24T11:02:46.834Z,100903.77
2019-02-24T11:12:59.847Z,101108.53
2019-02-24T11:33:30.036Z,100987.48
2019-02-24T11:43:43.492Z,100966.98
2019-02-24T11:53:55.684Z,101101.45
2019-02-24T12:04:08.048Z,101060.47
2019-02-24T12:14:20.844Z,100900.92
2019-02-24T12:24:33.044Z,100959.03
2019-02-24T12:34:45.621Z,100913.31
2019-02-24T12:44:57.422Z,100826.45
2019-02-24T12:55:10.484Z,100855.45
2019-02-24T13:05:22.022Z,100851.78
2019-02-24T13:15:33.427Z,100689.67
2019-02-24T13:25:45.930Z,100624.08
2019-02-24T13:35:58.053Z,100680.25
2019-02-24T13:46:10.323Z,100393.63
2019-02-24T13:56:22.495Z,100390.09
2019-02-24T14:06:34.558Z,100540.69
2019-02-24T14:16:47.607Z,100492.52
2019-02-24T14:27:00.221Z,100640.95
2019-02-24T14:37:13.855Z,100690.12
2019-02-24T14:47:26.520Z,100477.53
2019-02-24T14:57:38.392Z,100396.78
2019-02-24T15:07:51.484Z,100387.05
2019-02-24T15:18:02.981Z,100315.67
2019-02-24T15:28:15.531Z,100316.81
2019-02-24T15:38:27.676Z,100487.32
2019-02-24T15:48:40.587Z,100586.37
2019-02-24T15:58:52.414Z,100662.15
2019-02-24T16:09:05.849Z,100627.42
2019-02-24T16:19:18.255Z,100681.44
2019-02-24T16:29:30.999Z,100750.59
2019-02-24T16:39:43.288Z,100996.03
2019-02-24T16:49:55.121Z,101481.13
2019-02-24T17:00:07.324Z,101360.31
2019-02-24T17:10:19.707Z,101136.25
2019-02-24T17:20:31.357Z,101144.57
2019-02-24T17:30:43.618Z,101145.87
2019-02-24T17:40:55.166Z,101157.39
2019-02-24T17:51:08.541Z,101168.27
2019-02-24T18:01:22.610Z,101172.44
2019-02-24T18:11:34.066Z,101186.41
2019-02-24T18:21:45.517Z,101188.98
2019-02-24T18:31:57.085Z,101196.81
2019-02-24T18:42:08.595Z,101194.11
2019-02-24T18:52:21.864Z,101195.62
2019-02-24T19:02:35.416Z,101191.09
2019-02-24T19:12:47.088Z,101187.34
2019-02-24T19:22:58.449Z,101184.67
2019-02-24T19:33:10.057Z,101190.39
2019-02-24T19:43:21.696Z,101199.06
2019-02-24T19:53:33.213Z,101208.38
2019-02-24T20:03:44.672Z,101207.84
2019-02-24T20:13:56.690Z,101214.78
2019-02-24T20:24:08.573Z,101220.44
2019-02-24T20:34:25.535Z,101222.20
2019-02-24T20:44:34.719Z,101230.13
2019-02-24T20:54:46.380Z,101237.13
2019-02-24T21:04:57.713Z,101243.16
2019-02-24T21:15:09.422Z,101255.92
2019-02-24T21:25:21.902Z,101286.55
2019-02-24T21:35:34.899Z,101290.84
2019-02-24T21:45:47.874Z,101301.63
2019-02-24T21:56:00.964Z,101277.80
2019-02-24T22:06:13.115Z,101262.97
2019-02-24T22:16:25.286Z,101248.02
2019-02-24T22:26:37.409Z,101241.03
2019-02-24T22:36:49.813Z,101237.81
2019-02-24T22:47:01.618Z,101235.55
2019-02-24T22:57:17.656Z,101250.32
2019-02-24T23:07:30.013Z,101245.48
2019-02-24T23:17:41.647Z,101235.98
2019-02-24T23:27:53.464Z,101226.81
2019-02-24T23:38:06.230Z,101225.93
2019-02-24T23:48:18.807Z,101236.00
2019-02-24T23:58:30.882Z,101232.23
